sensor_id;sensor_type;location;lat;lon;timestamp;temperature;humidity
4056;DHT22;2043;52.184;8.690;2022-12-07T00:01:18;4.50;99.90
4056;DHT22;2043;52.184;8.690;2022-12-07T00:03:47;4.60;99.90
4056;DHT22;2043;52.184;8.690;2022-12-07T00:06:16;4.60;99.90
4056;DHT22;2043;52.184;8.690;2022-12-07T00:08:43;4.60;99.90
4056;DHT22;2043;52.184;8.690;2022-12-07T00:11:13;4.60;99.90
4056;DHT22;2043;52.184;8.690;2022-12-07T00:13:41;4.70;99.90
4056;DHT22;2043;52.184;8.690;2022-12-07T00:16:10;4.70;99.90
4056;DHT22;2043;52.184;8.690;2022-12-07T00:18:38;4.70;99.90
4056;DHT22;2043;52.184;8.690;2022-12-07T00:21:16;4.60;99.90
4056;DHT22;2043;52.184;8.690;2022-12-07T00:23:44;4.80;99.90
4056;DHT22;2043;52.184;8.690;2022-12-07T00:26:14;4.70;99.90
4056;DHT22;2043;52.184;8.690;2022-12-07T00:28:45;4.80;99.90
4056;DHT22;2043;52.184;8.690;2022-12-07T00:31:15;4.80;99.90
4056;DHT22;2043;52.184;8.690;2022-12-07T00:33:42;4.70;99.90
4056;DHT22;2043;52.184;8.690;2022-12-07T00:36:11;4.70;99.90
4056;DHT22;2043;52.184;8.690;2022-12-07T00:38:38;4.70;99.90
4056;DHT22;2043;52.184;8.690;2022-12-07T00:41:19;4.60;99.90
4056;DHT22;2043;52.184;8.690;2022-12-07T00:43:47;4.60;99.90
4056;DHT22;2043;52.184;8.690;2022-12-07T00:46:16;4.60;99.90
4056;DHT22;2043;52.184;8.690;2022-12-07T00:48:44;4.70;99.90
4056;DHT22;2043;52.184;8.690;2022-12-07T00:51:12;4.80;99.90
4056;DHT22;2043;52.184;8.690;2022-12-07T00:53:39;4.80;99.90
4056;DHT22;2043;52.184;8.690;2022-12-07T00:56:11;4.90;99.90
4056;DHT22;2043;52.184;8.690;2022-12-07T00:58:38;4.80;99.90
4056;DHT22;2043;52.184;8.690;2022-12-07T01:01:06;4.80;99.90
4056;DHT22;2043;52.184;8.690;2022-12-07T01:03:33;4.70;99.90
4056;DHT22;2043;52.184;8.690;2022-12-07T01:06:01;4.80;99.90
4056;DHT22;2043;52.184;8.690;2022-12-07T01:08:28;4.90;99.90
4056;DHT22;2043;52.184;8.690;2022-12-07T01:11:05;4.80;99.90
4056;DHT22;2043;52.184;8.690;2022-12-07T01:13:33;4.80;99.90
4056;DHT22;2043;52.184;8.690;2022-12-07T01:16:03;4.80;99.90
4056;DHT22;2043;52.184;8.690;2022-12-07T01:18:33;4.90;99.90
4056;DHT22;2043;52.184;8.690;2022-12-07T01:21:05;4.90;99.90
4056;DHT22;2043;52.184;8.690;2022-12-07T01:23:34;4.90;99.90
4056;DHT22;2043;52.184;8.690;2022-12-07T01:26:04;4.90;99.90
4056;DHT22;2043;52.184;8.690;2022-12-07T01:28:32;4.90;99.90
4056;DHT22;2043;52.184;8.690;2022-12-07T01:31:01;4.90;99.90
4056;DHT22;2043;52.184;8.690;2022-12-07T01:33:31;4.90;99.90
4056;DHT22;2043;52.184;8.690;2022-12-07T01:36:03;4.90;99.90
4056;DHT22;2043;52.184;8.690;2022-12-07T01:38:31;4.90;99.90
4056;DHT22;2043;52.184;8.690;2022-12-07T01:40:58;4.90;99.90
4056;DHT22;2043;52.184;8.690;2022-12-07T01:43:27;4.80;99.90
4056;DHT22;2043;52.184;8.690;2022-12-07T01:45:55;4.80;99.90
4056;DHT22;2043;52.184;8.690;2022-12-07T01:48:32;4.80;99.90
4056;DHT22;2043;52.184;8.690;2022-12-07T01:51:03;4.80;99.90
4056;DHT22;2043;52.184;8.690;2022-12-07T01:53:33;4.70;99.90
4056;DHT22;2043;52.184;8.690;2022-12-07T01:58:29;4.70;99.90
4056;DHT22;2043;52.184;8.690;2022-12-07T02:00:55;4.60;99.90
4056;DHT22;2043;52.184;8.690;2022-12-07T02:03:39;4.60;99.90
4056;DHT22;2043;52.184;8.690;2022-12-07T02:06:07;4.60;99.90
4056;DHT22;2043;52.184;8.690;2022-12-07T02:08:34;4.50;99.90
4056;DHT22;2043;52.184;8.690;2022-12-07T02:11:03;4.50;99.90
4056;DHT22;2043;52.184;8.690;2022-12-07T02:13:33;4.50;99.90
4056;DHT22;2043;52.184;8.690;2022-12-07T02:27:11;4.40;99.90
4056;DHT22;2043;52.184;8.690;2022-12-07T02:35:52;4.30;99.90
4056;DHT22;2043;52.184;8.690;2022-12-07T02:38:24;4.30;99.90
4056;DHT22;2043;52.184;8.690;2022-12-07T02:41:32;4.40;99.90
4056;DHT22;2043;52.184;8.690;2022-12-07T02:44:03;4.40;99.90
4056;DHT22;2043;52.184;8.690;2022-12-07T02:46:36;4.40;99.90
4056;DHT22;2043;52.184;8.690;2022-12-07T02:49:05;4.40;99.90
4056;DHT22;2043;52.184;8.690;2022-12-07T02:51:33;4.40;99.90
4056;DHT22;2043;52.184;8.690;2022-12-07T02:54:00;4.40;99.90
4056;DHT22;2043;52.184;8.690;2022-12-07T03:18:43;4.20;99.90
4056;DHT22;2043;52.184;8.690;2022-12-07T03:21:18;4.20;99.90
4056;DHT22;2043;52.184;8.690;2022-12-07T03:23:49;4.20;99.90
4056;DHT22;2043;52.184;8.690;2022-12-07T03:26:17;4.20;99.90
4056;DHT22;2043;52.184;8.690;2022-12-07T03:28:51;4.10;99.90
4056;DHT22;2043;52.184;8.690;2022-12-07T03:33:59;4.10;99.90
4056;DHT22;2043;52.184;8.690;2022-12-07T03:39:16;4.10;99.90
4056;DHT22;2043;52.184;8.690;2022-12-07T03:41:44;4.10;99.90
4056;DHT22;2043;52.184;8.690;2022-12-07T03:44:12;4.00;99.90
4056;DHT22;2043;52.184;8.690;2022-12-07T03:54:56;4.00;99.90
4056;DHT22;2043;52.184;8.690;2022-12-07T03:57:25;4.00;99.90
4056;DHT22;2043;52.184;8.690;2022-12-07T03:59:55;4.00;99.90
4056;DHT22;2043;52.184;8.690;2022-12-07T04:02:23;3.90;99.90
4056;DHT22;2043;52.184;8.690;2022-12-07T04:07:17;4.00;99.90
4056;DHT22;2043;52.184;8.690;2022-12-07T04:09:44;4.00;99.90
4056;DHT22;2043;52.184;8.690;2022-12-07T04:14:38;4.00;99.90
4056;DHT22;2043;52.184;8.690;2022-12-07T04:17:05;4.00;99.90
4056;DHT22;2043;52.184;8.690;2022-12-07T04:19:33;4.00;99.90
4056;DHT22;2043;52.184;8.690;2022-12-07T04:22:01;4.10;99.90
4056;DHT22;2043;52.184;8.690;2022-12-07T04:24:28;4.10;99.90
4056;DHT22;2043;52.184;8.690;2022-12-07T04:31:50;4.10;99.90
4056;DHT22;2043;52.184;8.690;2022-12-07T04:34:18;4.10;99.90
4056;DHT22;2043;52.184;8.690;2022-12-07T04:36:45;4.10;99.90
4056;DHT22;2043;52.184;8.690;2022-12-07T04:39:24;4.00;99.90
4056;DHT22;2043;52.184;8.690;2022-12-07T04:41:51;4.00;99.90
4056;DHT22;2043;52.184;8.690;2022-12-07T04:44:20;4.10;99.90
4056;DHT22;2043;52.184;8.690;2022-12-07T04:46:47;4.10;99.90
4056;DHT22;2043;52.184;8.690;2022-12-07T04:49:14;4.10;99.90
4056;DHT22;2043;52.184;8.690;2022-12-07T04:51:42;4.10;99.90
4056;DHT22;2043;52.184;8.690;2022-12-07T04:54:09;4.00;99.90
4056;DHT22;2043;52.184;8.690;2022-12-07T04:56:36;4.00;99.90
4056;DHT22;2043;52.184;8.690;2022-12-07T04:59:04;4.00;99.90
4056;DHT22;2043;52.184;8.690;2022-12-07T05:01:31;4.00;99.90
4056;DHT22;2043;52.184;8.690;2022-12-07T05:03:59;4.00;99.90
4056;DHT22;2043;52.184;8.690;2022-12-07T05:08:53;4.00;99.90
4056;DHT22;2043;52.184;8.690;2022-12-07T05:11:20;4.00;99.90
4056;DHT22;2043;52.184;8.690;2022-12-07T05:14:12;4.00;99.90
4056;DHT22;2043;52.184;8.690;2022-12-07T05:16:40;4.00;99.90
4056;DHT22;2043;52.184;8.690;2022-12-07T05:19:08;3.90;99.90
4056;DHT22;2043;52.184;8.690;2022-12-07T05:21:36;3.90;99.90
4056;DHT22;2043;52.184;8.690;2022-12-07T05:24:03;4.00;99.90
4056;DHT22;2043;52.184;8.690;2022-12-07T05:26:30;3.90;99.90
4056;DHT22;2043;52.184;8.690;2022-12-07T05:28:57;4.00;99.90
4056;DHT22;2043;52.184;8.690;2022-12-07T05:31:25;4.00;99.90
4056;DHT22;2043;52.184;8.690;2022-12-07T05:33:53;4.00;99.90
4056;DHT22;2043;52.184;8.690;2022-12-07T05:41:16;4.00;99.90
4056;DHT22;2043;52.184;8.690;2022-12-07T05:46:29;3.90;99.90
4056;DHT22;2043;52.184;8.690;2022-12-07T05:48:56;3.90;99.90
4056;DHT22;2043;52.184;8.690;2022-12-07T06:06:24;3.70;99.90
4056;DHT22;2043;52.184;8.690;2022-12-07T06:08:51;3.60;99.90
4056;DHT22;2043;52.184;8.690;2022-12-07T06:23:53;3.60;99.90
4056;DHT22;2043;52.184;8.690;2022-12-07T06:26:20;3.60;99.90
4056;DHT22;2043;52.184;8.690;2022-12-07T06:33:42;3.60;99.90
4056;DHT22;2043;52.184;8.690;2022-12-07T06:36:09;3.60;99.90
4056;DHT22;2043;52.184;8.690;2022-12-07T06:41:04;3.60;99.90
4056;DHT22;2043;52.184;8.690;2022-12-07T06:53:21;3.40;99.90
4056;DHT22;2043;52.184;8.690;2022-12-07T06:55:48;3.40;99.90
4056;DHT22;2043;52.184;8.690;2022-12-07T06:58:16;3.40;99.90
4056;DHT22;2043;52.184;8.690;2022-12-07T07:00:44;3.40;99.90
4056;DHT22;2043;52.184;8.690;2022-12-07T07:03:11;3.40;99.90
4056;DHT22;2043;52.184;8.690;2022-12-07T07:10:48;3.30;99.90
4056;DHT22;2043;52.184;8.690;2022-12-07T07:13:16;3.30;99.90
4056;DHT22;2043;52.184;8.690;2022-12-07T07:15:42;3.30;99.90
4056;DHT22;2043;52.184;8.690;2022-12-07T07:20:37;3.30;99.90
4056;DHT22;2043;52.184;8.690;2022-12-07T07:23:04;3.20;99.90
4056;DHT22;2043;52.184;8.690;2022-12-07T07:25:31;3.20;99.90
4056;DHT22;2043;52.184;8.690;2022-12-07T07:30:26;3.20;99.90
4056;DHT22;2043;52.184;8.690;2022-12-07T07:32:57;3.30;99.90
4056;DHT22;2043;52.184;8.690;2022-12-07T07:35:25;3.30;99.90
4056;DHT22;2043;52.184;8.690;2022-12-07T07:37:52;3.30;99.90
4056;DHT22;2043;52.184;8.690;2022-12-07T07:42:48;3.40;99.90
4056;DHT22;2043;52.184;8.690;2022-12-07T07:47:42;3.50;99.90
4056;DHT22;2043;52.184;8.690;2022-12-07T07:50:09;3.50;99.90
4056;DHT22;2043;52.184;8.690;2022-12-07T07:52:36;3.60;99.90
4056;DHT22;2043;52.184;8.690;2022-12-07T07:55:03;3.50;99.90
4056;DHT22;2043;52.184;8.690;2022-12-07T07:59:57;3.50;99.90
4056;DHT22;2043;52.184;8.690;2022-12-07T08:07:18;3.60;99.90
4056;DHT22;2043;52.184;8.690;2022-12-07T08:09:45;3.70;99.90
4056;DHT22;2043;52.184;8.690;2022-12-07T08:12:12;3.70;99.90
4056;DHT22;2043;52.184;8.690;2022-12-07T08:17:06;3.80;99.90
4056;DHT22;2043;52.184;8.690;2022-12-07T08:19:33;3.80;99.90
4056;DHT22;2043;52.184;8.690;2022-12-07T08:21:59;3.80;99.90
4056;DHT22;2043;52.184;8.690;2022-12-07T08:24:26;3.80;99.90
4056;DHT22;2043;52.184;8.690;2022-12-07T08:34:14;4.00;99.90
4056;DHT22;2043;52.184;8.690;2022-12-07T08:36:41;4.10;99.90
4056;DHT22;2043;52.184;8.690;2022-12-07T08:39:08;4.10;99.90
4056;DHT22;2043;52.184;8.690;2022-12-07T08:41:55;4.30;99.90
4056;DHT22;2043;52.184;8.690;2022-12-07T08:46:57;4.40;99.90
4056;DHT22;2043;52.184;8.690;2022-12-07T08:49:30;4.40;99.90
4056;DHT22;2043;52.184;8.690;2022-12-07T08:51:59;4.50;99.90
4056;DHT22;2043;52.184;8.690;2022-12-07T08:54:25;4.30;99.90
4056;DHT22;2043;52.184;8.690;2022-12-07T08:56:55;4.30;99.90
4056;DHT22;2043;52.184;8.690;2022-12-07T08:59:26;4.20;99.90
4056;DHT22;2043;52.184;8.690;2022-12-07T09:06:47;4.30;99.90
4056;DHT22;2043;52.184;8.690;2022-12-07T09:09:15;4.20;99.90
4056;DHT22;2043;52.184;8.690;2022-12-07T09:11:42;4.20;99.90
4056;DHT22;2043;52.184;8.690;2022-12-07T09:14:11;4.10;99.90
4056;DHT22;2043;52.184;8.690;2022-12-07T09:16:39;4.20;99.90
4056;DHT22;2043;52.184;8.690;2022-12-07T09:19:08;4.20;99.90
4056;DHT22;2043;52.184;8.690;2022-12-07T09:21:35;4.40;99.90
4056;DHT22;2043;52.184;8.690;2022-12-07T09:28:56;4.50;99.90
4056;DHT22;2043;52.184;8.690;2022-12-07T09:33:59;4.50;99.90
4056;DHT22;2043;52.184;8.690;2022-12-07T09:36:28;4.60;99.90
4056;DHT22;2043;52.184;8.690;2022-12-07T09:38:55;4.70;99.90
4056;DHT22;2043;52.184;8.690;2022-12-07T09:41:23;4.80;99.90
4056;DHT22;2043;52.184;8.690;2022-12-07T09:43:51;4.90;99.90
4056;DHT22;2043;52.184;8.690;2022-12-07T09:46:20;5.20;99.90
4056;DHT22;2043;52.184;8.690;2022-12-07T09:48:49;6.60;99.90
4056;DHT22;2043;52.184;8.690;2022-12-07T09:51:19;7.60;98.90
4056;DHT22;2043;52.184;8.690;2022-12-07T09:53:51;6.80;98.90
4056;DHT22;2043;52.184;8.690;2022-12-07T09:56:19;6.10;99.90
4056;DHT22;2043;52.184;8.690;2022-12-07T09:58:46;6.10;99.90
4056;DHT22;2043;52.184;8.690;2022-12-07T10:01:19;6.80;99.90
4056;DHT22;2043;52.184;8.690;2022-12-07T10:03:52;6.50;99.90
4056;DHT22;2043;52.184;8.690;2022-12-07T10:06:19;6.50;99.90
4056;DHT22;2043;52.184;8.690;2022-12-07T10:08:47;6.00;99.90
4056;DHT22;2043;52.184;8.690;2022-12-07T10:11:14;5.70;99.90
4056;DHT22;2043;52.184;8.690;2022-12-07T10:13:45;5.60;99.90
4056;DHT22;2043;52.184;8.690;2022-12-07T10:16:38;5.60;99.90
4056;DHT22;2043;52.184;8.690;2022-12-07T10:19:31;5.80;99.90
4056;DHT22;2043;52.184;8.690;2022-12-07T10:24:47;6.00;99.90
4056;DHT22;2043;52.184;8.690;2022-12-07T10:27:31;6.20;99.90
4056;DHT22;2043;52.184;8.690;2022-12-07T10:29:58;6.00;99.90
4056;DHT22;2043;52.184;8.690;2022-12-07T10:32:36;5.60;99.90
4056;DHT22;2043;52.184;8.690;2022-12-07T10:35:35;5.30;99.90
4056;DHT22;2043;52.184;8.690;2022-12-07T10:38:16;5.20;99.90
4056;DHT22;2043;52.184;8.690;2022-12-07T10:40:43;5.20;99.90
4056;DHT22;2043;52.184;8.690;2022-12-07T10:51:36;5.20;99.90
4056;DHT22;2043;52.184;8.690;2022-12-07T11:00:15;5.40;99.90
4056;DHT22;2043;52.184;8.690;2022-12-07T11:05:56;6.00;99.90
4056;DHT22;2043;52.184;8.690;2022-12-07T11:12:03;5.80;99.90
4056;DHT22;2043;52.184;8.690;2022-12-07T11:14:31;6.60;99.90
4056;DHT22;2043;52.184;8.690;2022-12-07T11:17:20;7.30;99.40
4056;DHT22;2043;52.184;8.690;2022-12-07T11:25:23;7.00;98.90
4056;DHT22;2043;52.184;8.690;2022-12-07T11:28:20;6.40;99.90
4056;DHT22;2043;52.184;8.690;2022-12-07T11:31:12;6.00;99.90
4056;DHT22;2043;52.184;8.690;2022-12-07T11:33:52;6.00;99.90
4056;DHT22;2043;52.184;8.690;2022-12-07T11:39:41;5.70;99.90
4056;DHT22;2043;52.184;8.690;2022-12-07T11:47:45;6.80;99.90
4056;DHT22;2043;52.184;8.690;2022-12-07T12:03:52;7.50;98.00
4056;DHT22;2043;52.184;8.690;2022-12-07T12:06:20;6.70;99.00
4056;DHT22;2043;52.184;8.690;2022-12-07T12:08:55;6.70;99.90
4056;DHT22;2043;52.184;8.690;2022-12-07T12:20:29;6.10;99.90
4056;DHT22;2043;52.184;8.690;2022-12-07T12:23:17;5.90;99.90
4056;DHT22;2043;52.184;8.690;2022-12-07T12:25:50;5.70;99.90
4056;DHT22;2043;52.184;8.690;2022-12-07T12:28:40;5.60;99.90
4056;DHT22;2043;52.184;8.690;2022-12-07T12:33:59;5.50;99.90
4056;DHT22;2043;52.184;8.690;2022-12-07T12:39:15;5.60;99.90
4056;DHT22;2043;52.184;8.690;2022-12-07T12:51:56;6.00;99.90
4056;DHT22;2043;52.184;8.690;2022-12-07T12:54:34;6.40;99.90
4056;DHT22;2043;52.184;8.690;2022-12-07T12:57:26;6.50;99.90
4056;DHT22;2043;52.184;8.690;2022-12-07T13:02:32;6.60;99.90
4056;DHT22;2043;52.184;8.690;2022-12-07T13:15:54;6.30;99.90
4056;DHT22;2043;52.184;8.690;2022-12-07T13:24:09;6.30;99.90
4056;DHT22;2043;52.184;8.690;2022-12-07T13:31:50;6.20;99.90
4056;DHT22;2043;52.184;8.690;2022-12-07T13:39:54;6.20;99.90
4056;DHT22;2043;52.184;8.690;2022-12-07T13:44:59;6.10;99.90
4056;DHT22;2043;52.184;8.690;2022-12-07T13:49:57;5.90;99.90
4056;DHT22;2043;52.184;8.690;2022-12-07T13:52:29;5.90;99.90
4056;DHT22;2043;52.184;8.690;2022-12-07T13:57:35;6.00;99.90
4056;DHT22;2043;52.184;8.690;2022-12-07T14:00:04;5.90;99.90
4056;DHT22;2043;52.184;8.690;2022-12-07T14:02:33;5.80;99.90
4056;DHT22;2043;52.184;8.690;2022-12-07T14:10:41;5.80;99.90
4056;DHT22;2043;52.184;8.690;2022-12-07T14:13:33;5.80;99.90
4056;DHT22;2043;52.184;8.690;2022-12-07T14:16:03;5.70;99.90
4056;DHT22;2043;52.184;8.690;2022-12-07T14:18:37;5.60;99.90
4056;DHT22;2043;52.184;8.690;2022-12-07T14:21:15;5.70;99.90
4056;DHT22;2043;52.184;8.690;2022-12-07T14:23:43;5.70;99.90
4056;DHT22;2043;52.184;8.690;2022-12-07T14:28:37;5.60;99.90
4056;DHT22;2043;52.184;8.690;2022-12-07T14:33:44;5.70;99.90
4056;DHT22;2043;52.184;8.690;2022-12-07T14:36:12;5.60;99.90
4056;DHT22;2043;52.184;8.690;2022-12-07T14:38:39;5.60;99.90
4056;DHT22;2043;52.184;8.690;2022-12-07T14:41:12;5.60;99.90
4056;DHT22;2043;52.184;8.690;2022-12-07T14:43:59;5.50;99.90
4056;DHT22;2043;52.184;8.690;2022-12-07T14:46:47;5.40;99.90
4056;DHT22;2043;52.184;8.690;2022-12-07T14:51:58;5.40;99.90
4056;DHT22;2043;52.184;8.690;2022-12-07T15:02:12;5.30;99.90
4056;DHT22;2043;52.184;8.690;2022-12-07T15:04:40;5.30;99.90
4056;DHT22;2043;52.184;8.690;2022-12-07T15:07:16;5.30;99.90
4056;DHT22;2043;52.184;8.690;2022-12-07T15:09:44;5.30;99.90
4056;DHT22;2043;52.184;8.690;2022-12-07T15:17:05;5.10;99.90
4056;DHT22;2043;52.184;8.690;2022-12-07T15:24:31;5.20;99.90
4056;DHT22;2043;52.184;8.690;2022-12-07T15:34:24;5.20;99.90
4056;DHT22;2043;52.184;8.690;2022-12-07T15:36:52;5.10;99.90
4056;DHT22;2043;52.184;8.690;2022-12-07T15:44:14;4.70;99.90
4056;DHT22;2043;52.184;8.690;2022-12-07T15:47:00;4.80;99.90
4056;DHT22;2043;52.184;8.690;2022-12-07T15:49:27;4.70;99.90
4056;DHT22;2043;52.184;8.690;2022-12-07T15:54:24;4.70;99.90
4056;DHT22;2043;52.184;8.690;2022-12-07T15:59:18;4.80;99.90
4056;DHT22;2043;52.184;8.690;2022-12-07T16:01:46;4.80;99.90
4056;DHT22;2043;52.184;8.690;2022-12-07T16:06:41;4.70;99.90
4056;DHT22;2043;52.184;8.690;2022-12-07T16:09:08;4.60;99.90
4056;DHT22;2043;52.184;8.690;2022-12-07T16:16:29;4.60;99.90
4056;DHT22;2043;52.184;8.690;2022-12-07T16:18:57;4.50;99.90
4056;DHT22;2043;52.184;8.690;2022-12-07T16:23:51;4.40;99.90
4056;DHT22;2043;52.184;8.690;2022-12-07T16:26:20;4.40;99.90
4056;DHT22;2043;52.184;8.690;2022-12-07T16:28:51;4.30;99.90
4056;DHT22;2043;52.184;8.690;2022-12-07T16:31:24;4.20;99.90
4056;DHT22;2043;52.184;8.690;2022-12-07T16:33:56;4.10;99.90
4056;DHT22;2043;52.184;8.690;2022-12-07T16:36:24;4.20;99.90
4056;DHT22;2043;52.184;8.690;2022-12-07T16:44:10;4.10;99.90
4056;DHT22;2043;52.184;8.690;2022-12-07T16:46:40;4.10;99.90
4056;DHT22;2043;52.184;8.690;2022-12-07T16:49:13;4.00;99.90
4056;DHT22;2043;52.184;8.690;2022-12-07T16:54:12;3.90;99.90
4056;DHT22;2043;52.184;8.690;2022-12-07T16:56:40;3.80;99.90
4056;DHT22;2043;52.184;8.690;2022-12-07T16:59:08;3.90;99.90
4056;DHT22;2043;52.184;8.690;2022-12-07T17:01:35;4.00;99.90
4056;DHT22;2043;52.184;8.690;2022-12-07T17:42:05;3.90;99.90
4056;DHT22;2043;52.184;8.690;2022-12-07T18:16:22;4.10;99.90
4056;DHT22;2043;52.184;8.690;2022-12-07T18:26:23;4.10;99.90
4056;DHT22;2043;52.184;8.690;2022-12-07T18:28:50;4.20;99.90
4056;DHT22;2043;52.184;8.690;2022-12-07T18:33:47;4.10;99.90
4056;DHT22;2043;52.184;8.690;2022-12-07T18:36:16;4.10;99.90
4056;DHT22;2043;52.184;8.690;2022-12-07T18:38:43;4.10;99.90
4056;DHT22;2043;52.184;8.690;2022-12-07T18:41:12;4.10;99.90
4056;DHT22;2043;52.184;8.690;2022-12-07T18:43:40;4.00;99.90
4056;DHT22;2043;52.184;8.690;2022-12-07T18:46:15;3.80;99.90
4056;DHT22;2043;52.184;8.690;2022-12-07T18:51:11;3.70;99.90
4056;DHT22;2043;52.184;8.690;2022-12-07T18:53:38;3.80;99.90
4056;DHT22;2043;52.184;8.690;2022-12-07T18:56:16;3.80;99.90
4056;DHT22;2043;52.184;8.690;2022-12-07T19:01:33;4.00;99.90
4056;DHT22;2043;52.184;8.690;2022-12-07T19:04:01;3.90;99.90
4056;DHT22;2043;52.184;8.690;2022-12-07T19:06:28;4.00;99.90
4056;DHT22;2043;52.184;8.690;2022-12-07T19:08:55;4.00;99.90
4056;DHT22;2043;52.184;8.690;2022-12-07T19:11:30;3.90;99.90
4056;DHT22;2043;52.184;8.690;2022-12-07T19:16:48;4.10;99.90
4056;DHT22;2043;52.184;8.690;2022-12-07T19:19:17;4.10;99.90
4056;DHT22;2043;52.184;8.690;2022-12-07T19:21:45;4.10;99.90
4056;DHT22;2043;52.184;8.690;2022-12-07T19:24:12;3.90;99.90
4056;DHT22;2043;52.184;8.690;2022-12-07T19:26:47;3.90;99.90
4056;DHT22;2043;52.184;8.690;2022-12-07T19:29:13;4.00;99.90
4056;DHT22;2043;52.184;8.690;2022-12-07T19:31:40;3.90;99.90
4056;DHT22;2043;52.184;8.690;2022-12-07T19:34:12;3.80;99.90
4056;DHT22;2043;52.184;8.690;2022-12-07T19:36:39;3.70;99.90
4056;DHT22;2043;52.184;8.690;2022-12-07T19:39:06;3.70;99.90
4056;DHT22;2043;52.184;8.690;2022-12-07T19:41:40;3.70;99.90
4056;DHT22;2043;52.184;8.690;2022-12-07T19:44:19;3.70;99.90
4056;DHT22;2043;52.184;8.690;2022-12-07T19:46:50;3.90;99.90
4056;DHT22;2043;52.184;8.690;2022-12-07T19:49:21;3.80;99.90
4056;DHT22;2043;52.184;8.690;2022-12-07T19:51:51;3.70;99.90
4056;DHT22;2043;52.184;8.690;2022-12-07T19:54:20;3.70;99.90
4056;DHT22;2043;52.184;8.690;2022-12-07T19:56:51;3.60;99.90
4056;DHT22;2043;52.184;8.690;2022-12-07T19:59:22;3.50;99.90
4056;DHT22;2043;52.184;8.690;2022-12-07T20:01:49;3.50;99.90
4056;DHT22;2043;52.184;8.690;2022-12-07T20:04:28;3.50;99.90
4056;DHT22;2043;52.184;8.690;2022-12-07T20:06:58;3.50;99.90
4056;DHT22;2043;52.184;8.690;2022-12-07T20:09:26;3.40;99.90
4056;DHT22;2043;52.184;8.690;2022-12-07T20:11:53;3.50;99.90
4056;DHT22;2043;52.184;8.690;2022-12-07T20:14:38;3.60;99.90
4056;DHT22;2043;52.184;8.690;2022-12-07T20:17:05;3.60;99.90
4056;DHT22;2043;52.184;8.690;2022-12-07T20:19:37;3.70;99.90
4056;DHT22;2043;52.184;8.690;2022-12-07T20:22:04;3.70;99.90
4056;DHT22;2043;52.184;8.690;2022-12-07T20:27:00;3.80;99.90
4056;DHT22;2043;52.184;8.690;2022-12-07T20:29:27;3.70;99.90
4056;DHT22;2043;52.184;8.690;2022-12-07T20:31:55;3.70;99.90
4056;DHT22;2043;52.184;8.690;2022-12-07T20:34:22;3.80;99.90
4056;DHT22;2043;52.184;8.690;2022-12-07T20:49:47;3.90;99.90
4056;DHT22;2043;52.184;8.690;2022-12-07T21:02:15;3.70;99.90
4056;DHT22;2043;52.184;8.690;2022-12-07T21:14:42;3.60;99.90
4056;DHT22;2043;52.184;8.690;2022-12-07T21:19:37;3.80;99.90
4056;DHT22;2043;52.184;8.690;2022-12-07T21:22:07;3.80;99.90
4056;DHT22;2043;52.184;8.690;2022-12-07T21:24:44;3.80;99.90
4056;DHT22;2043;52.184;8.690;2022-12-07T21:27:11;3.70;99.90
4056;DHT22;2043;52.184;8.690;2022-12-07T21:29:58;3.80;99.90
4056;DHT22;2043;52.184;8.690;2022-12-07T21:47:29;3.90;99.90
4056;DHT22;2043;52.184;8.690;2022-12-07T21:55:04;3.90;99.90
4056;DHT22;2043;52.184;8.690;2022-12-07T21:57:59;3.90;99.90
4056;DHT22;2043;52.184;8.690;2022-12-07T22:08:10;3.70;99.90
4056;DHT22;2043;52.184;8.690;2022-12-07T22:28:09;3.70;99.90
4056;DHT22;2043;52.184;8.690;2022-12-07T22:30:55;3.80;99.90
4056;DHT22;2043;52.184;8.690;2022-12-07T22:33:34;3.80;99.90
4056;DHT22;2043;52.184;8.690;2022-12-07T22:36:04;3.80;99.90
4056;DHT22;2043;52.184;8.690;2022-12-07T22:38:39;3.80;99.90
4056;DHT22;2043;52.184;8.690;2022-12-07T22:48:47;3.80;99.90
4056;DHT22;2043;52.184;8.690;2022-12-07T22:51:25;3.80;99.90
4056;DHT22;2043;52.184;8.690;2022-12-07T22:53:52;3.80;99.90
4056;DHT22;2043;52.184;8.690;2022-12-07T23:01:16;3.80;99.90
4056;DHT22;2043;52.184;8.690;2022-12-07T23:06:34;3.70;99.90
4056;DHT22;2043;52.184;8.690;2022-12-07T23:09:18;3.80;99.90
4056;DHT22;2043;52.184;8.690;2022-12-07T23:14:36;3.80;99.90
4056;DHT22;2043;52.184;8.690;2022-12-07T23:22:22;3.60;99.90
4056;DHT22;2043;52.184;8.690;2022-12-07T23:39:58;3.50;99.90
4056;DHT22;2043;52.184;8.690;2022-12-07T23:52:42;3.40;99.90
4056;DHT22;2043;52.184;8.690;2022-12-07T23:55:18;3.40;99.90
